Time;durP1;ratioP1;P1;durP2;ratioP2;P2;SDS_P1;SDS_P2;PMS_P1;PMS_P2;Temp;Humidity;BMP_temperature;BMP_pressure;BME280_temperature;BME280_humidity;BME280_pressure;Samples;Min_cycle;Max_cycle;Signal;HPM_P1;HPM_P2
2023/04/04 00:00:29;;;;;;;7.45;2.88;;;6.60;65.40;;;;;;5037784;28;20025;-74
2023/04/04 00:02:55;;;;;;;7.68;2.35;;;6.60;66.30;;;;;;5033654;28;20025;-74
2023/04/04 00:05:20;;;;;;;4.95;1.92;;;6.50;66.30;;;;;;5045694;28;20369;-74
2023/04/04 00:07:46;;;;;;;9.93;2.70;;;6.50;66.60;;;;;;5050434;28;20033;-74
2023/04/04 00:10:12;;;;;;;7.28;2.42;;;6.50;65.50;;;;;;5037352;28;20017;-75
2023/04/04 00:12:38;;;;;;;8.68;2.83;;;6.50;69.40;;;;;;5048554;28;20021;-74
2023/04/04 00:15:04;;;;;;;7.43;2.53;;;6.50;68.40;;;;;;5043949;28;20040;-74
2023/04/04 00:17:30;;;;;;;7.80;2.33;;;6.40;66.10;;;;;;5049984;28;20021;-74
2023/04/04 00:19:56;;;;;;;6.38;2.83;;;6.40;66.10;;;;;;5031789;28;20033;-73
2023/04/04 00:22:23;;;;;;;5.80;2.55;;;6.40;65.50;;;;;;5049421;28;20033;-74
2023/04/04 00:24:48;;;;;;;6.72;3.05;;;6.40;65.80;;;;;;5041555;28;20033;-73
2023/04/04 00:27:15;;;;;;;5.85;2.40;;;6.40;65.40;;;;;;5048478;28;20044;-73
2023/04/04 00:29:41;;;;;;;9.05;3.38;;;6.40;67.30;;;;;;5041155;28;20021;-73
2023/04/04 00:32:06;;;;;;;8.68;3.10;;;6.40;70.40;;;;;;5045869;28;20021;-75
2023/04/04 00:34:32;;;;;;;5.55;2.42;;;6.40;67.60;;;;;;5049974;28;20090;-74
2023/04/04 00:36:57;;;;;;;9.45;2.90;;;6.30;67.50;;;;;;5044053;28;20040;-76
2023/04/04 00:39:25;;;;;;;7.50;2.90;;;6.30;67.20;;;;;;5046252;28;20017;-74
2023/04/04 00:41:53;;;;;;;7.22;2.97;;;6.30;66.80;;;;;;5043351;28;20491;-75
2023/04/04 00:44:19;;;;;;;8.02;3.13;;;6.20;66.90;;;;;;5051660;28;20064;-74
2023/04/04 00:46:45;;;;;;;8.18;3.25;;;6.20;66.70;;;;;;5040197;28;20053;-74
2023/04/04 00:49:11;;;;;;;7.22;3.30;;;6.20;66.50;;;;;;5050760;28;20049;-73
2023/04/04 00:51:38;;;;;;;7.45;3.85;;;6.20;66.30;;;;;;5037662;28;20096;-74
2023/04/04 00:54:04;;;;;;;9.80;2.60;;;6.20;66.30;;;;;;5048097;28;20113;-74
2023/04/04 00:56:34;;;;;;;9.07;3.03;;;6.10;66.40;;;;;;5035968;28;20053;-73
2023/04/04 00:59:00;;;;;;;7.33;3.33;;;6.10;66.30;;;;;;5050169;28;20035;-75
2023/04/04 01:01:26;;;;;;;5.22;2.67;;;6.10;66.30;;;;;;5037475;28;20029;-75
2023/04/04 01:03:51;;;;;;;7.32;2.90;;;6.10;66.50;;;;;;5050554;28;20037;-74
2023/04/04 01:06:17;;;;;;;6.68;2.42;;;6.10;66.50;;;;;;5047825;28;20372;-74
2023/04/04 01:08:44;;;;;;;8.05;3.13;;;6.10;66.70;;;;;;5047773;28;20017;-73
2023/04/04 01:11:10;;;;;;;8.80;3.00;;;6.00;66.70;;;;;;5042829;28;20056;-74
2023/04/04 01:13:36;;;;;;;7.38;2.80;;;6.00;66.80;;;;;;5042707;28;20017;-74
2023/04/04 01:16:01;;;;;;;6.20;2.75;;;6.00;66.90;;;;;;5041202;28;20104;-74
2023/04/04 01:18:28;;;;;;;7.65;2.72;;;6.00;66.90;;;;;;5041983;28;20183;-73
2023/04/04 01:21:01;;;;;;;8.15;3.17;;;5.90;67.60;;;;;;5038545;28;20021;-74
2023/04/04 01:23:40;;;;;;;5.97;2.58;;;5.90;67.20;;;;;;5035425;28;20044;-74
2023/04/04 01:26:06;;;;;;;8.27;2.90;;;5.90;67.20;;;;;;5037783;28;20075;-73
2023/04/04 01:28:33;;;;;;;6.97;3.08;;;5.90;67.50;;;;;;5038169;28;20016;-73
2023/04/04 01:31:01;;;;;;;7.07;3.08;;;5.90;67.50;;;;;;5028563;28;20026;-73
2023/04/04 01:33:36;;;;;;;7.63;3.30;;;5.80;67.20;;;;;;5036123;28;20021;-74
2023/04/04 01:36:26;;;;;;;9.80;3.35;;;5.80;67.20;;;;;;5032259;28;20369;-74
2023/04/04 01:38:58;;;;;;;7.72;3.00;;;5.80;67.10;;;;;;5037906;28;20629;-75
2023/04/04 01:41:26;;;;;;;11.77;4.05;;;5.80;67.10;;;;;;5035207;28;20018;-74
2023/04/04 01:43:52;;;;;;;10.93;3.03;;;5.80;67.30;;;;;;5037756;28;20155;-73
2023/04/04 01:46:18;;;;;;;5.18;2.78;;;5.80;67.50;;;;;;5036014;28;20120;-74
2023/04/04 01:48:45;;;;;;;8.52;2.97;;;5.80;67.40;;;;;;5033876;28;20029;-73
2023/04/04 01:51:11;;;;;;;10.23;3.53;;;5.80;67.70;;;;;;5045998;28;20017;-74
2023/04/04 01:53:37;;;;;;;8.52;3.58;;;5.80;68.20;;;;;;5031973;28;20108;-74
2023/04/04 01:56:04;;;;;;;6.90;3.35;;;5.80;67.70;;;;;;5049175;28;20032;-74
2023/04/04 01:58:30;;;;;;;7.38;2.70;;;5.80;68.70;;;;;;5046658;28;20032;-74
2023/04/04 02:00:56;;;;;;;6.93;2.90;;;5.70;68.30;;;;;;5052575;28;20021;-74
2023/04/04 02:03:21;;;;;;;7.40;3.08;;;5.70;68.20;;;;;;5031875;28;20038;-73
2023/04/04 02:05:48;;;;;;;11.07;3.40;;;5.70;68.10;;;;;;5038248;28;20021;-74
2023/04/04 02:08:16;;;;;;;10.45;3.58;;;5.70;68.10;;;;;;5031641;28;20033;-73
2023/04/04 02:10:42;;;;;;;6.78;3.17;;;5.70;68.50;;;;;;5044662;28;20067;-74
2023/04/04 02:13:07;;;;;;;9.70;3.35;;;5.60;68.10;;;;;;5042429;28;20049;-73
2023/04/04 02:15:34;;;;;;;6.45;3.38;;;5.60;68.10;;;;;;5043877;28;20036;-74
2023/04/04 02:18:00;;;;;;;6.03;2.70;;;5.60;68.50;;;;;;5048579;28;20057;-74
2023/04/04 02:20:26;;;;;;;5.07;2.20;;;5.60;68.30;;;;;;5049778;28;20025;-73
2023/04/04 02:22:54;;;;;;;7.40;2.75;;;5.60;68.70;;;;;;5048578;28;20039;-74
2023/04/04 02:25:21;;;;;;;8.68;3.00;;;5.60;69.10;;;;;;5050863;28;20102;-73
2023/04/04 02:27:46;;;;;;;8.02;3.47;;;5.60;68.50;;;;;;5048330;28;20356;-74
2023/04/04 02:30:13;;;;;;;7.95;3.08;;;5.60;68.70;;;;;;5042492;28;20040;-73
2023/04/04 02:32:38;;;;;;;6.65;3.22;;;5.60;68.60;;;;;;5041898;28;20028;-75
2023/04/04 02:35:05;;;;;;;10.48;3.42;;;5.50;68.50;;;;;;5041722;28;20124;-73
2023/04/04 02:37:30;;;;;;;6.47;2.70;;;5.50;69.00;;;;;;5053763;28;20028;-73
2023/04/04 02:39:56;;;;;;;9.88;3.22;;;5.50;69.10;;;;;;5043799;28;20031;-74
2023/04/04 02:42:22;;;;;;;7.22;2.83;;;5.40;69.00;;;;;;5050759;28;20553;-74
2023/04/04 02:44:47;;;;;;;7.43;3.13;;;5.40;69.90;;;;;;5051345;28;20108;-73
2023/04/04 02:47:13;;;;;;;6.85;3.28;;;5.40;69.30;;;;;;5046711;28;20117;-74
2023/04/04 02:49:38;;;;;;;9.27;3.08;;;5.40;69.60;;;;;;5051003;28;20029;-75
2023/04/04 02:52:04;;;;;;;8.30;3.95;;;5.30;70.20;;;;;;5049735;28;20021;-75
2023/04/04 02:54:30;;;;;;;5.90;2.80;;;5.30;70.20;;;;;;5040490;28;20492;-74
2023/04/04 02:56:56;;;;;;;8.10;2.80;;;5.30;70.20;;;;;;5039196;28;20029;-72
2023/04/04 02:59:22;;;;;;;6.45;3.33;;;5.30;70.40;;;;;;5048834;28;20021;-73
2023/04/04 03:01:47;;;;;;;7.35;2.88;;;5.20;70.90;;;;;;5045012;28;20032;-73
2023/04/04 03:04:13;;;;;;;8.77;3.35;;;5.20;70.80;;;;;;5037585;28;20037;-73
2023/04/04 03:06:40;;;;;;;9.63;3.33;;;5.20;71.20;;;;;;5039007;28;20025;-73
2023/04/04 03:09:06;;;;;;;9.13;3.10;;;5.20;71.30;;;;;;5050542;28;20025;-72
2023/04/04 03:11:31;;;;;;;7.72;3.08;;;5.20;71.70;;;;;;5042374;28;20020;-73
2023/04/04 03:13:58;;;;;;;7.63;3.33;;;5.10;71.90;;;;;;5032372;28;20025;-73
2023/04/04 03:16:24;;;;;;;8.93;3.75;;;5.10;71.80;;;;;;5034531;28;20021;-74
2023/04/04 03:18:50;;;;;;;9.20;3.42;;;5.00;72.10;;;;;;5042379;28;20467;-75
2023/04/04 03:21:16;;;;;;;7.28;3.03;;;5.00;72.70;;;;;;5028582;28;20140;-74
2023/04/04 03:23:41;;;;;;;8.68;3.10;;;5.00;73.00;;;;;;5048564;28;20114;-74
2023/04/04 03:26:08;;;;;;;5.68;2.97;;;5.00;72.90;;;;;;5037189;28;20160;-74
2023/04/04 03:28:34;;;;;;;9.77;3.38;;;4.90;73.60;;;;;;5043954;28;20086;-74
2023/04/04 03:31:04;;;;;;;7.70;3.17;;;4.90;73.10;;;;;;5049269;28;20434;-73
2023/04/04 03:33:32;;;;;;;7.88;3.45;;;4.90;73.40;;;;;;5046615;28;20028;-75
2023/04/04 03:35:58;;;;;;;6.78;3.33;;;4.80;73.60;;;;;;5044683;28;20025;-75
2023/04/04 03:38:24;;;;;;;10.27;3.38;;;4.80;73.60;;;;;;5050083;28;20430;-73
2023/04/04 03:40:59;;;;;;;8.52;3.88;;;4.80;73.70;;;;;;5047966;28;20025;-72
2023/04/04 03:43:25;;;;;;;9.27;3.40;;;4.80;73.20;;;;;;5040717;28;20056;-74
2023/04/04 03:45:50;;;;;;;7.20;3.15;;;4.80;73.40;;;;;;5031908;28;20134;-73
2023/04/04 03:48:16;;;;;;;7.50;3.33;;;4.80;73.30;;;;;;5039483;28;20029;-74
2023/04/04 03:50:42;;;;;;;6.80;3.15;;;4.80;73.30;;;;;;5049461;28;20017;-74
2023/04/04 03:53:08;;;;;;;9.02;3.67;;;4.70;73.50;;;;;;5047984;28;20175;-74
2023/04/04 03:55:34;;;;;;;8.35;3.42;;;4.70;74.10;;;;;;5043587;28;20039;-74
2023/04/04 03:58:00;;;;;;;8.05;3.28;;;4.70;73.90;;;;;;5033671;28;20032;-75
2023/04/04 04:00:26;;;;;;;7.93;3.80;;;4.70;74.10;;;;;;5041794;28;20017;-73
2023/04/04 04:02:51;;;;;;;8.13;3.38;;;4.70;74.40;;;;;;5042582;28;20067;-74
2023/04/04 04:05:17;;;;;;;9.23;3.78;;;4.70;74.70;;;;;;5047639;28;20017;-74
2023/04/04 04:07:44;;;;;;;5.45;2.70;;;4.60;74.80;;;;;;5040117;28;20024;-74
2023/04/04 04:10:11;;;;;;;10.13;3.22;;;4.60;75.00;;;;;;5047848;28;20021;-74
2023/04/04 04:12:36;;;;;;;8.25;3.33;;;4.60;75.00;;;;;;5040968;28;20021;-74
2023/04/04 04:15:02;;;;;;;9.13;3.42;;;4.60;75.30;;;;;;5045541;28;20732;-74
2023/04/04 04:17:28;;;;;;;7.47;4.00;;;4.60;75.40;;;;;;5051960;28;20059;-74
2023/04/04 04:19:53;;;;;;;6.95;3.47;;;4.50;75.50;;;;;;5051693;28;20025;-74
2023/04/04 04:22:19;;;;;;;9.05;3.95;;;4.50;75.30;;;;;;5051385;28;20028;-74
2023/04/04 04:24:45;;;;;;;8.63;3.30;;;4.50;75.80;;;;;;5052246;28;20023;-73
2023/04/04 04:27:10;;;;;;;7.38;3.53;;;4.40;75.70;;;;;;5043071;28;20029;-75
2023/04/04 04:29:36;;;;;;;8.95;3.75;;;4.40;75.90;;;;;;5049394;28;20527;-74
2023/04/04 04:32:02;;;;;;;8.80;3.58;;;4.40;76.10;;;;;;5053139;28;20102;-73
2023/04/04 04:34:27;;;;;;;10.77;3.75;;;4.40;76.60;;;;;;5045187;28;20053;-74
2023/04/04 04:36:53;;;;;;;10.43;3.60;;;4.30;76.10;;;;;;5044310;28;20013;-75
2023/04/04 04:39:19;;;;;;;9.10;3.67;;;4.30;76.20;;;;;;5048199;28;20020;-74
2023/04/04 04:41:45;;;;;;;9.48;3.20;;;4.40;76.30;;;;;;5053612;28;20040;-73
2023/04/04 04:44:11;;;;;;;8.35;3.90;;;4.30;76.20;;;;;;5052949;28;20084;-73
2023/04/04 04:46:37;;;;;;;9.63;3.72;;;4.30;76.50;;;;;;5049158;28;20021;-73
2023/04/04 04:49:04;;;;;;;11.07;3.60;;;4.30;76.60;;;;;;5051188;28;20063;-74
2023/04/04 04:51:29;;;;;;;9.77;2.95;;;4.30;76.40;;;;;;5045419;28;20020;-74
2023/04/04 04:53:55;;;;;;;9.02;3.22;;;4.30;76.10;;;;;;5046816;28;20021;-74
2023/04/04 04:56:21;;;;;;;9.65;3.78;;;4.30;76.20;;;;;;5035714;28;20025;-75
2023/04/04 04:58:47;;;;;;;7.43;3.35;;;4.30;76.80;;;;;;5035849;28;20029;-73
2023/04/04 05:01:13;;;;;;;9.20;3.88;;;4.30;76.70;;;;;;5045826;28;20025;-74
2023/04/04 05:03:38;;;;;;;10.15;3.75;;;4.30;76.70;;;;;;5035408;28;20029;-72
2023/04/04 05:06:05;;;;;;;8.15;3.40;;;4.30;76.70;;;;;;5042110;28;20018;-73
2023/04/04 05:08:31;;;;;;;10.10;3.92;;;4.30;76.80;;;;;;5050480;28;20037;-72
2023/04/04 05:10:56;;;;;;;7.97;3.85;;;4.30;76.80;;;;;;5048160;28;20020;-74
2023/04/04 05:13:22;;;;;;;9.88;3.63;;;4.30;76.20;;;;;;5040155;28;20428;-74
2023/04/04 05:15:48;;;;;;;8.75;3.88;;;4.30;76.10;;;;;;5037544;28;20021;-74
2023/04/04 05:18:14;;;;;;;9.63;3.45;;;4.30;76.60;;;;;;5050237;28;20072;-74
2023/04/04 05:20:39;;;;;;;6.90;2.95;;;4.20;76.00;;;;;;5044609;28;20098;-72
2023/04/04 05:23:05;;;;;;;10.95;4.15;;;4.20;76.30;;;;;;5045102;28;20049;-73
2023/04/04 05:25:31;;;;;;;10.90;4.30;;;4.20;76.40;;;;;;5032168;28;20025;-74
2023/04/04 05:27:57;;;;;;;10.68;3.88;;;4.20;77.00;;;;;;5043343;28;20033;-74
2023/04/04 05:30:23;;;;;;;7.40;4.20;;;4.20;77.00;;;;;;5042616;28;20025;-74
2023/04/04 05:32:50;;;;;;;9.50;3.83;;;4.20;76.90;;;;;;5048806;28;20025;-74
2023/04/04 05:35:16;;;;;;;8.57;3.80;;;4.20;76.90;;;;;;5040057;28;20031;-74
2023/04/04 05:37:42;;;;;;;8.85;3.42;;;4.20;77.40;;;;;;5047187;28;20029;-74
2023/04/04 05:40:09;;;;;;;7.35;3.08;;;4.30;77.30;;;;;;5049956;28;20052;-74
2023/04/04 05:42:34;;;;;;;6.13;3.53;;;4.30;77.70;;;;;;5048576;28;20021;-73
2023/04/04 05:45:00;;;;;;;9.48;3.95;;;4.40;76.50;;;;;;5050551;28;20032;-74
2023/04/04 05:47:26;;;;;;;13.25;4.45;;;4.40;76.50;;;;;;5044812;28;20018;-73
2023/04/04 05:49:54;;;;;;;8.80;4.22;;;4.50;77.00;;;;;;5030743;28;20028;-75
2023/04/04 05:52:20;;;;;;;8.23;4.43;;;4.40;76.60;;;;;;5045890;28;20453;-74
2023/04/04 05:54:46;;;;;;;8.07;3.78;;;4.50;76.70;;;;;;5038040;28;20472;-73
2023/04/04 05:57:12;;;;;;;8.48;3.72;;;4.60;77.00;;;;;;5031572;28;20026;-74
2023/04/04 05:59:37;;;;;;;9.15;3.50;;;4.60;76.70;;;;;;5049917;28;20022;-74
2023/04/04 06:02:03;;;;;;;10.55;3.97;;;4.70;77.20;;;;;;5049238;28;20021;-74
2023/04/04 06:04:29;;;;;;;9.75;4.55;;;4.80;77.10;;;;;;5049833;28;20033;-74
2023/04/04 06:06:54;;;;;;;8.07;3.60;;;4.80;77.10;;;;;;5039028;28;20036;-74
2023/04/04 06:09:20;;;;;;;9.38;3.97;;;4.90;75.90;;;;;;5045488;28;20088;-75
2023/04/04 06:11:46;;;;;;;9.95;4.65;;;4.90;75.80;;;;;;5037419;28;20104;-73
2023/04/04 06:14:11;;;;;;;10.27;3.95;;;5.10;76.00;;;;;;5042668;28;20033;-75
2023/04/04 06:16:38;;;;;;;7.43;3.53;;;5.10;75.70;;;;;;5046776;28;20029;-75
2023/04/04 06:19:03;;;;;;;10.90;5.00;;;5.20;73.10;;;;;;5044063;28;20464;-75
2023/04/04 06:21:29;;;;;;;9.00;3.85;;;5.30;72.40;;;;;;5044289;28;20037;-74
2023/04/04 06:23:55;;;;;;;10.65;4.13;;;5.30;71.70;;;;;;5035445;28;20046;-74
2023/04/04 06:26:22;;;;;;;15.95;3.83;;;5.40;72.00;;;;;;5045768;28;20087;-76
2023/04/04 06:28:51;;;;;;;16.88;3.33;;;5.50;70.80;;;;;;5049511;28;20025;-75
2023/04/04 06:31:18;;;;;;;8.80;3.40;;;5.50;71.30;;;;;;5041537;28;20409;-72
2023/04/04 06:33:43;;;;;;;7.78;3.08;;;5.70;71.50;;;;;;5048746;28;20029;-74
2023/04/04 06:36:09;;;;;;;6.85;3.47;;;5.80;71.50;;;;;;5046085;28;20434;-73
2023/04/04 06:38:35;;;;;;;6.68;3.25;;;6.00;72.00;;;;;;5037214;28;20020;-72
2023/04/04 06:41:00;;;;;;;7.90;3.35;;;6.10;71.90;;;;;;5042720;28;20025;-72
2023/04/04 06:43:26;;;;;;;7.03;3.00;;;6.20;72.20;;;;;;5042445;28;20037;-73
2023/04/04 06:45:52;;;;;;;6.15;2.65;;;6.30;71.10;;;;;;5046082;28;20032;-73
2023/04/04 06:48:17;;;;;;;10.95;3.70;;;6.30;70.80;;;;;;5031540;28;20084;-74
2023/04/04 06:50:43;;;;;;;10.30;3.63;;;6.40;70.80;;;;;;5039169;28;20052;-73
2023/04/04 06:53:09;;;;;;;7.70;2.78;;;6.40;69.90;;;;;;5029609;28;20045;-73
2023/04/04 06:55:35;;;;;;;5.97;2.95;;;6.60;69.20;;;;;;5044015;28;20399;-73
2023/04/04 06:58:01;;;;;;;7.57;3.40;;;6.60;69.00;;;;;;5035227;28;20045;-73
2023/04/04 07:00:27;;;;;;;6.35;3.05;;;6.70;69.00;;;;;;5048357;28;20021;-73
2023/04/04 07:02:57;;;;;;;7.22;2.60;;;6.70;69.80;;;;;;5039941;28;20034;-73
2023/04/04 07:05:23;;;;;;;8.20;2.63;;;7.00;69.50;;;;;;5044769;28;20035;-73
2023/04/04 07:07:55;;;;;;;4.78;2.55;;;7.10;68.70;;;;;;5041502;28;20403;-72
2023/04/04 07:10:24;;;;;;;5.13;2.75;;;7.10;68.10;;;;;;5040091;28;20021;-73
2023/04/04 07:12:50;;;;;;;6.35;2.47;;;7.20;67.60;;;;;;5037636;28;20060;-73
2023/04/04 07:15:16;;;;;;;4.50;2.35;;;7.30;67.40;;;;;;5039923;28;20056;-73
2023/04/04 07:17:42;;;;;;;6.82;2.95;;;7.30;66.60;;;;;;5031749;28;20053;-73
2023/04/04 07:20:09;;;;;;;5.75;2.60;;;7.30;67.10;;;;;;5046891;28;20096;-72
2023/04/04 07:22:39;;;;;;;9.55;2.70;;;7.40;67.30;;;;;;5037573;28;20029;-72
2023/04/04 07:25:05;;;;;;;8.90;3.53;;;7.40;66.90;;;;;;5046077;28;20024;-72
2023/04/04 07:27:32;;;;;;;5.68;2.47;;;7.50;66.60;;;;;;5037897;28;20018;-73
2023/04/04 07:29:57;;;;;;;7.68;2.65;;;7.70;65.90;;;;;;5044979;28;20028;-72
2023/04/04 07:32:23;;;;;;;6.50;2.65;;;7.70;65.70;;;;;;5039496;28;20108;-74
2023/04/04 07:34:49;;;;;;;8.20;3.38;;;7.70;65.70;;;;;;5040038;28;20047;-73
2023/04/04 07:37:15;;;;;;;6.75;3.00;;;7.80;64.90;;;;;;5048674;28;20013;-74
2023/04/04 07:39:41;;;;;;;7.63;2.55;;;7.90;63.20;;;;;;5042455;28;20075;-74
2023/04/04 07:42:07;;;;;;;5.18;2.63;;;7.90;64.00;;;;;;5053431;28;20025;-73
2023/04/04 07:44:33;;;;;;;5.78;2.95;;;8.00;63.40;;;;;;5044815;28;20040;-73
2023/04/04 07:46:59;;;;;;;8.02;3.20;;;8.20;62.60;;;;;;5050298;28;20027;-74
2023/04/04 07:49:25;;;;;;;7.90;3.70;;;8.30;61.50;;;;;;5032336;28;20392;-74
2023/04/04 07:51:50;;;;;;;11.20;3.53;;;8.60;60.80;;;;;;5039004;28;20021;-74
2023/04/04 07:54:16;;;;;;;8.77;3.20;;;8.70;60.80;;;;;;5038610;28;20483;-73
2023/04/04 07:56:41;;;;;;;9.65;2.90;;;8.80;58.70;;;;;;5041890;28;20029;-75
2023/04/04 07:59:07;;;;;;;7.35;3.78;;;8.90;58.90;;;;;;5038958;28;20534;-75
2023/04/04 08:01:32;;;;;;;7.60;3.53;;;8.90;58.70;;;;;;5043833;28;20021;-75
2023/04/04 08:03:58;;;;;;;7.82;3.40;;;9.10;58.60;;;;;;5045158;28;20598;-77
2023/04/04 08:06:26;;;;;;;6.60;3.53;;;9.20;57.80;;;;;;5040905;28;20490;-76
2023/04/04 08:08:54;;;;;;;6.90;3.08;;;9.20;57.30;;;;;;5039171;28;20383;-76
2023/04/04 08:11:20;;;;;;;8.23;3.10;;;9.20;57.40;;;;;;5042829;28;20022;-76
2023/04/04 08:13:45;;;;;;;8.85;3.30;;;9.30;57.40;;;;;;5038272;28;20025;-76
2023/04/04 08:16:11;;;;;;;8.68;3.53;;;9.30;57.20;;;;;;5042853;28;20550;-75
2023/04/04 08:18:37;;;;;;;5.70;2.63;;;9.50;56.70;;;;;;5041369;28;20099;-75
2023/04/04 08:21:03;;;;;;;10.68;3.78;;;9.60;54.60;;;;;;5055525;28;20029;-76
2023/04/04 08:23:29;;;;;;;8.32;3.30;;;9.60;55.30;;;;;;5046379;28;20032;-76
2023/04/04 08:25:56;;;;;;;5.85;2.53;;;9.80;54.30;;;;;;5044725;28;20053;-77
2023/04/04 08:28:22;;;;;;;7.72;3.13;;;10.00;53.70;;;;;;5043252;28;20029;-77
2023/04/04 08:30:47;;;;;;;7.15;3.85;;;10.10;54.40;;;;;;5027480;28;20029;-77
2023/04/04 08:33:13;;;;;;;8.85;2.90;;;10.30;55.50;;;;;;5044151;28;20044;-75
2023/04/04 08:35:40;;;;;;;9.45;2.88;;;10.30;54.30;;;;;;5051830;28;20057;-75
2023/04/04 08:38:07;;;;;;;7.65;3.10;;;10.50;55.10;;;;;;5043225;28;20025;-75
2023/04/04 08:40:33;;;;;;;8.95;3.45;;;10.60;55.50;;;;;;5046045;28;20017;-74
2023/04/04 08:42:59;;;;;;;7.30;3.38;;;10.70;53.50;;;;;;5044722;28;20728;-74
2023/04/04 08:45:29;;;;;;;6.97;2.70;;;10.80;53.30;;;;;;5042196;28;20025;-76
2023/04/04 08:47:58;;;;;;;6.55;2.50;;;11.00;53.30;;;;;;5040942;28;20036;-75
2023/04/04 08:50:24;;;;;;;7.30;3.58;;;11.10;53.20;;;;;;5047268;28;20033;-74
2023/04/04 08:52:51;;;;;;;7.30;3.28;;;11.10;51.50;;;;;;5037305;28;20052;-74
2023/04/04 08:55:17;;;;;;;7.15;3.42;;;11.20;51.90;;;;;;5042085;28;20021;-76
2023/04/04 08:57:43;;;;;;;12.52;2.80;;;11.40;52.10;;;;;;5036798;28;20029;-75
2023/04/04 09:00:09;;;;;;;7.40;3.08;;;11.60;51.20;;;;;;5035644;28;20048;-75
2023/04/04 09:03:10;;;;;;;9.27;3.13;;;11.70;49.50;;;;;;5038956;28;20104;-76
2023/04/04 09:05:36;;;;;;;6.47;3.13;;;11.60;50.60;;;;;;5041644;28;20041;-75
2023/04/04 09:08:05;;;;;;;8.85;3.05;;;11.40;50.40;;;;;;5041760;28;20051;-74
2023/04/04 09:10:31;;;;;;;10.82;3.42;;;11.50;51.80;;;;;;5040344;28;20045;-73
2023/04/04 09:12:58;;;;;;;7.63;2.67;;;11.60;50.10;;;;;;5042908;28;20064;-76
2023/04/04 09:15:24;;;;;;;8.05;2.92;;;11.70;52.30;;;;;;5040241;28;20025;-75
2023/04/04 09:17:49;;;;;;;11.98;3.10;;;11.80;50.50;;;;;;5040937;28;20110;-75
2023/04/04 09:20:34;;;;;;;11.05;2.90;;;11.90;50.00;;;;;;5044757;28;20017;-75
2023/04/04 09:23:00;;;;;;;9.57;3.38;;;11.90;49.10;;;;;;5039228;28;20028;-75
2023/04/04 09:25:26;;;;;;;7.95;2.35;;;11.90;48.90;;;;;;5042360;28;20029;-76
2023/04/04 09:27:53;;;;;;;6.78;3.30;;;12.00;53.40;;;;;;5040481;28;20028;-75
2023/04/04 09:30:19;;;;;;;8.63;3.53;;;12.20;49.00;;;;;;5035660;28;20029;-74
2023/04/04 09:32:45;;;;;;;7.82;2.78;;;12.30;48.80;;;;;;5041071;28;20837;-75
2023/04/04 09:35:14;;;;;;;9.40;2.95;;;12.50;54.20;;;;;;5042694;28;20111;-75
2023/04/04 09:37:41;;;;;;;8.02;3.50;;;12.70;50.60;;;;;;5046065;28;20073;-76
2023/04/04 09:40:09;;;;;;;7.93;3.72;;;12.90;49.50;;;;;;5043645;28;20048;-77
2023/04/04 09:42:35;;;;;;;6.05;3.22;;;13.00;47.30;;;;;;5041430;28;20013;-75
2023/04/04 09:45:01;;;;;;;7.80;2.53;;;13.20;50.40;;;;;;5041321;28;20036;-75
2023/04/04 09:47:29;;;;;;;7.07;3.50;;;13.30;48.00;;;;;;5038097;28;20026;-74
2023/04/04 09:49:59;;;;;;;10.77;4.63;;;13.10;46.70;;;;;;5045585;28;20021;-77
2023/04/04 09:52:25;;;;;;;;;;;12.90;46.30;;;;;;5039959;28;20418;-80
2023/04/04 09:54:56;;;;;;;9.07;3.15;;;12.90;46.90;;;;;;5037182;28;19947;-77
2023/04/04 09:57:22;;;;;;;6.18;2.55;;;13.00;47.60;;;;;;5044794;28;20029;-74
2023/04/04 09:59:48;;;;;;;7.18;2.90;;;13.10;48.80;;;;;;5035631;28;20496;-74
2023/04/04 10:02:15;;;;;;;6.03;2.08;;;13.20;46.70;;;;;;5043432;28;20061;-73
2023/04/04 10:04:41;;;;;;;4.13;1.88;;;13.20;60.90;;;;;;5039403;28;20069;-74
2023/04/04 10:07:13;;;;;;;5.43;2.00;;;13.30;69.40;;;;;;5042653;28;20021;-74
2023/04/04 10:09:39;;;;;;;8.05;3.33;;;13.50;72.40;;;;;;5035839;28;20049;-74
2023/04/04 10:12:11;;;;;;;7.57;3.65;;;13.60;54.00;;;;;;5040356;28;20061;-74
2023/04/04 10:14:37;;;;;;;7.40;2.90;;;13.70;53.50;;;;;;5036594;28;20026;-74
2023/04/04 10:17:12;;;;;;;8.40;3.10;;;13.80;52.60;;;;;;5034910;28;20283;-73
2023/04/04 10:19:38;;;;;;;8.88;2.70;;;13.80;49.90;;;;;;5036961;28;20106;-74
2023/04/04 10:22:08;;;;;;;7.43;2.45;;;13.80;54.30;;;;;;5038129;28;20049;-75
2023/04/04 10:24:34;;;;;;;5.55;2.63;;;13.90;59.40;;;;;;5033858;28;20574;-75
2023/04/04 10:27:00;;;;;;;6.07;2.80;;;13.90;48.40;;;;;;5037039;28;20100;-74
2023/04/04 10:29:26;;;;;;;6.53;3.13;;;14.00;48.40;;;;;;5034050;28;20036;-75
2023/04/04 10:32:04;;;;;;;8.23;3.40;;;14.00;45.50;;;;;;5038489;28;20095;-74
2023/04/04 10:34:52;;;;;;;8.35;3.00;;;14.10;47.10;;;;;;5039799;28;20033;-76
2023/04/04 10:37:25;;;;;;;7.40;2.85;;;14.00;46.50;;;;;;5039031;28;20017;-75
2023/04/04 10:40:00;;;;;;;9.07;3.60;;;13.90;47.70;;;;;;5035303;28;20821;-73
2023/04/04 10:42:32;;;;;;;6.22;2.72;;;13.90;46.50;;;;;;5037747;28;20022;-75
2023/04/04 10:45:00;;;;;;;10.15;3.78;;;14.10;50.20;;;;;;5039101;28;20025;-75
2023/04/04 10:47:28;;;;;;;9.10;3.15;;;14.20;49.20;;;;;;5037631;28;20021;-74
2023/04/04 10:49:55;;;;;;;8.18;3.15;;;14.20;47.00;;;;;;5033760;28;20032;-74
2023/04/04 10:52:26;;;;;;;7.30;2.60;;;14.20;46.40;;;;;;5040245;28;20036;-74
2023/04/04 10:54:57;;;;;;;7.65;3.00;;;14.30;48.10;;;;;;5038857;28;20083;-74
2023/04/04 10:57:24;;;;;;;7.28;3.33;;;14.40;47.80;;;;;;5039156;28;20024;-76
2023/04/04 11:00:08;;;;;;;7.90;3.95;;;14.60;46.80;;;;;;5037647;28;20025;-74
2023/04/04 11:02:49;;;;;;;7.60;3.28;;;14.80;48.20;;;;;;5051053;28;20489;-75
2023/04/04 11:05:46;;;;;;;16.08;3.63;;;14.80;44.80;;;;;;5029711;28;22046;-76
2023/04/04 11:08:36;;;;;;;7.90;3.30;;;14.90;46.80;;;;;;5028132;28;20092;-74
2023/04/04 11:11:01;;;;;;;7.82;3.03;;;14.60;46.40;;;;;;5033098;28;20029;-74
2023/04/04 11:13:36;;;;;;;6.97;3.08;;;14.40;47.70;;;;;;5037191;28;20371;-74
2023/04/04 11:16:08;;;;;;;8.65;3.80;;;14.40;49.20;;;;;;5037989;28;20025;-74
2023/04/04 11:18:44;;;;;;;7.22;2.80;;;14.60;45.90;;;;;;5033378;28;20069;-74
2023/04/04 11:21:22;;;;;;;7.45;2.97;;;14.60;47.40;;;;;;5035072;28;20025;-74
2023/04/04 11:23:48;;;;;;;4.93;2.20;;;14.40;48.90;;;;;;5036768;28;20040;-74
2023/04/04 11:26:40;;;;;;;7.80;2.83;;;14.60;54.50;;;;;;5043301;28;20021;-74
2023/04/04 11:29:07;;;;;;;4.60;2.53;;;14.70;48.20;;;;;;5045270;28;20036;-75
2023/04/04 11:31:38;;;;;;;5.68;2.63;;;15.00;59.40;;;;;;5044277;28;20024;-74
2023/04/04 11:34:10;;;;;;;9.18;3.70;;;15.10;49.10;;;;;;5046267;28;20649;-74
2023/04/04 11:36:35;;;;;;;9.30;3.58;;;15.30;53.00;;;;;;5047302;28;20065;-75
2023/04/04 11:39:05;;;;;;;6.05;3.47;;;15.30;47.60;;;;;;5045933;28;20029;-75
2023/04/04 11:41:46;;;;;;;6.07;3.35;;;15.20;45.40;;;;;;5046914;28;20032;-74
2023/04/04 11:44:14;;;;;;;11.43;4.30;;;15.20;45.80;;;;;;5048760;28;20124;-74
2023/04/04 11:46:41;;;;;;;9.05;3.45;;;15.10;45.10;;;;;;5050543;28;20021;-76
2023/04/04 11:49:08;;;;;;;7.65;3.05;;;15.30;46.40;;;;;;5048659;28;20028;-76
2023/04/04 11:51:35;;;;;;;12.23;3.22;;;15.30;46.70;;;;;;5043898;28;20025;-74
2023/04/04 11:54:01;;;;;;;12.57;3.88;;;15.20;47.40;;;;;;5042413;28;20021;-75
2023/04/04 11:56:27;;;;;;;5.82;3.00;;;15.30;45.00;;;;;;5042923;28;20014;-74
2023/04/04 11:58:52;;;;;;;6.35;3.00;;;15.20;46.10;;;;;;5043883;28;20021;-75
2023/04/04 12:01:19;;;;;;;6.30;2.67;;;15.00;43.40;;;;;;5040964;28;20072;-75
2023/04/04 12:03:47;;;;;;;9.20;3.00;;;14.90;46.80;;;;;;5038874;28;20036;-75
2023/04/04 12:06:15;;;;;;;10.20;3.40;;;14.80;44.60;;;;;;5042150;28;20924;-74
2023/04/04 12:08:41;;;;;;;7.40;3.80;;;15.00;47.50;;;;;;5042942;28;20546;-74
2023/04/04 12:11:09;;;;;;;7.40;2.70;;;15.20;44.90;;;;;;5043034;28;20056;-74
2023/04/04 12:13:42;;;;;;;7.85;3.85;;;15.40;45.90;;;;;;5046777;28;20075;-75
2023/04/04 12:16:08;;;;;;;8.98;3.55;;;15.50;42.90;;;;;;5047328;28;20067;-73
2023/04/04 12:18:33;;;;;;;8.95;3.28;;;15.60;49.10;;;;;;5040548;28;20073;-74
2023/04/04 12:21:00;;;;;;;9.40;3.38;;;15.70;47.10;;;;;;5041578;28;20080;-73
2023/04/04 12:23:26;;;;;;;6.55;3.45;;;15.80;45.40;;;;;;5043106;28;20021;-74
2023/04/04 12:25:54;;;;;;;6.75;3.17;;;15.90;44.10;;;;;;5041418;28;20506;-73
2023/04/04 12:28:21;;;;;;;7.55;3.30;;;15.90;42.40;;;;;;5042025;28;20063;-74
2023/04/04 12:30:47;;;;;;;8.27;3.15;;;16.00;43.50;;;;;;5041960;28;20025;-73
2023/04/04 12:33:13;;;;;;;5.65;2.28;;;15.80;46.50;;;;;;5042311;28;20435;-72
2023/04/04 12:35:39;;;;;;;5.70;3.17;;;15.70;50.80;;;;;;5043392;28;20043;-75
2023/04/04 12:38:09;;;;;;;8.07;2.97;;;15.70;47.00;;;;;;5035355;28;20495;-74
2023/04/04 12:40:37;;;;;;;7.40;3.28;;;15.80;43.10;;;;;;5042075;28;20064;-75
2023/04/04 12:43:04;;;;;;;8.80;3.45;;;16.00;42.70;;;;;;5037266;28;20913;-74
2023/04/04 12:45:31;;;;;;;6.68;3.10;;;16.20;41.80;;;;;;5041064;28;20023;-75
2023/04/04 12:47:57;;;;;;;10.27;3.15;;;16.50;45.70;;;;;;5038397;28;20020;-74
2023/04/04 12:50:26;;;;;;;6.38;1.85;;;16.70;44.20;;;;;;5040072;28;20044;-74
2023/04/04 12:52:55;;;;;;;7.88;2.60;;;16.80;54.90;;;;;;5034879;28;20076;-74